Weather at KEN Paphos Helipad

Public forecast

Using degrees Celsius for public forecast. Weather courtesy of forecast.io.

Closest aviation weather report (METAR) to KEN Paphos Helipad

Closest report is Paphos International Airport, 3.5 nm (6.5 km) WSW.

2024/06/19 06:30 (retrieved 37 minutes ago)

LCPH 190630Z 25005KT 230V320 CAVOK 28/24 Q1009 NOSIG

Closest aviation forecast (TAF) to KEN Paphos Helipad

Closest forecast is Paphos International Airport, 3.5 nm (6.5 km) WSW.

2024/06/19 06:30 (retrieved 37 minutes ago)

TAF LCPH 190530Z 1906/2006 01006KT 9999 FEW020 BECMG 1909/1912 28012KT BECMG 1919/1922 02006KT PROB30 TEMPO 1921/2004 BKN009